Fjordprinsessen — LJVE — position and weather

sailwx.info

Track history (hours):
 
Tides and Currents Weather Stations Pressure Air Temp Water Temp Dewpoint Dewpoint Depression Visibility Wind Speed Wind Dir Waves Ship Positions

Fjordprinsessen

Last reported at 2017-Mar-28 00:32 UTC. Time now 2017-Mar-28 00:39 UTC.
Position N 67°17' E 014°22'.

Length 30 m.

Type: High speed craft. MMSI: 259604000.

Date/timePositionNaut miles runAvg speedWind from/ knotsBaromVisibWave heightAir tempDewpointWater temp
2017-Mar-28 00:32N 67°17' E 014°22'0 0.0
2017-Mar-27 23:32N 67°17' E 014°22'0 0.0
2017-Mar-27 22:32N 67°17' E 014°22'0 0.0
2017-Mar-27 21:32N 67°17' E 014°22'0 0.0
2017-Mar-27 20:32N 67°17' E 014°22'0 0.0
2017-Mar-27 19:32N 67°17' E 014°22'0 0.0
2017-Mar-27 18:32N 67°17' E 014°22'0 0.0
2017-Mar-27 17:32N 67°17' E 014°22'0 0.0
2017-Mar-27 16:32N 67°17' E 014°22'0 0.0
2017-Mar-27 15:32N 67°17' E 014°22'7 7.1
2017-Mar-27 14:32N 67°23' E 014°14'7 7.1
2017-Mar-27 13:33N 67°17' E 014°22'0 0.0
2017-Mar-27 12:33N 67°17' E 014°22'0 0.0
2017-Mar-27 11:33N 67°17' E 014°22'0 0.0
2017-Mar-27 10:34N 67°17' E 014°22'1313.0
2017-Mar-27 09:34N 67°08' E 013°58'3215.4
2017-Mar-27 07:30N 66°41' E 013°16'1212.7
2017-Mar-27 06:33N 66°31' E 013°00'1916.1
2017-Mar-27 05:24N 66°12' E 013°00'0 0.0
2017-Mar-26 18:26N 66°12' E 013°00'9 0.4
2017-Mar-25 19:32N 66°21' E 012°53'1914.7
2017-Mar-25 18:17N 66°39' E 013°02'2010.8
2017-Mar-25 16:26N 66°56' E 013°27'1820.2
2017-Mar-25 15:34N 67°07' E 014°03'1212.3
2017-Mar-25 14:33N 67°17' E 014°22'0 0.0
2017-Mar-25 13:33N 67°17' E 014°22'0 0.0
2017-Mar-25 12:33N 67°17' E 014°22'0 0.0
2017-Mar-25 11:33N 67°17' E 014°22'10 9.5
2017-Mar-25 10:33N 67°24' E 014°06'9 8.5
2017-Mar-25 09:32N 67°19' E 013°47'9 9.7
2017-Mar-25 08:34N 67°17' E 014°11'1010.2
2017-Mar-25 07:34N 67°08' E 013°59'1111.2
2017-Mar-25 06:33N 67°16' E 014°17'2 2.2
2017-Mar-25 05:32N 67°17' E 014°22'0 0.0
2017-Mar-25 04:32N 67°17' E 014°22'0 0.0
2017-Mar-25 03:32N 67°17' E 014°22'0 0.0
2017-Mar-25 02:32N 67°17' E 014°22'0 0.0
2017-Mar-25 01:32N 67°17' E 014°22'0 0.0
2017-Mar-25 00:32N 67°17' E 014°22'0 0.0
2017-Mar-24 23:32N 67°17' E 014°22'0 0.0
2017-Mar-24 22:32N 67°17' E 014°22'0 0.0
2017-Mar-24 21:32N 67°17' E 014°22'0 0.0
2017-Mar-24 20:32N 67°17' E 014°22'0 0.0
2017-Mar-24 19:32N 67°17' E 014°22'0 0.0
2017-Mar-24 18:32N 67°17' E 014°22'0 0.0
2017-Mar-24 17:32N 67°17' E 014°22'5 4.7
2017-Mar-24 16:34N 67°21' E 014°15'4 4.0
2017-Mar-24 15:34N 67°24' E 014°10'9 8.5
2017-Mar-24 14:33N 67°17' E 014°22'1513.4
2017-Mar-24 13:26N 67°18' E 013°43'1315.0
2017-Mar-24 12:34N 67°23' E 014°15'7 7.0
2017-Mar-24 11:33N 67°17' E 014°24'1 0.6
2017-Mar-24 10:33N 67°17' E 014°22'0 0.0
2017-Mar-24 09:33N 67°17' E 014°22'0 0.0
2017-Mar-24 08:33N 67°17' E 014°22'0 0.0
2017-Mar-24 07:33N 67°17' E 014°22'0 0.0
2017-Mar-24 06:33N 67°17' E 014°22'1212.5
2017-Mar-24 05:33N 67°07' E 014°02'1212.5
2017-Mar-24 04:33N 67°17' E 014°22'0 0.0
2017-Mar-24 03:32N 67°17' E 014°22'0 0.0
2017-Mar-24 02:32N 67°17' E 014°22'0 0.0
2017-Mar-24 01:32N 67°17' E 014°22'0 0.0
2017-Mar-24 00:32N 67°17' E 014°22'0 0.0
2017-Mar-23 23:32N 67°17' E 014°22'0 0.0
2017-Mar-23 22:32N 67°17' E 014°22'0 0.0
2017-Mar-23 21:32N 67°17' E 014°22'8 8.3
2017-Mar-23 20:34N 67°14' E 014°04'6 6.2
2017-Mar-23 19:33N 67°08' E 014°02'1212.4
2017-Mar-23 18:33N 67°17' E 014°22'0 0.0
2017-Mar-23 17:33N 67°17' E 014°22'6 5.9
2017-Mar-23 16:34N 67°22' E 014°13'6 5.5
2017-Mar-23 15:32N 67°25' E 014°01'1111.5
2017-Mar-23 14:34N 67°17' E 014°22'1414.1
2017-Mar-23 13:33N 67°19' E 013°45'1212.0
2017-Mar-23 12:31N 67°23' E 014°15'7 7.3
2017-Mar-23 11:33N 67°17' E 014°24'1110.7
2017-Mar-23 10:34N 67°13' E 013°59'2 2.1
2017-Mar-23 09:33N 67°11' E 014°02'10 9.2
2017-Mar-23 08:31N 67°17' E 014°22'0 0.0
2017-Mar-23 07:31N 67°17' E 014°22'0 0.0
2017-Mar-23 06:31N 67°17' E 014°22'1213.0
2017-Mar-23 05:33N 67°07' E 014°02'1212.5
2017-Mar-23 04:33N 67°17' E 014°22'0 0.0
2017-Mar-23 03:33N 67°17' E 014°22'0 0.0
2017-Mar-23 02:33N 67°17' E 014°22'0 0.0
2017-Mar-23 01:33N 67°17' E 014°22'0 0.0
2017-Mar-23 00:33N 67°17' E 014°22'0 0.0
2017-Mar-22 23:33N 67°17' E 014°22'0 0.0
2017-Mar-22 22:33N 67°17' E 014°22'0 0.0
2017-Mar-22 21:33N 67°17' E 014°22'0 0.0
2017-Mar-22 20:33N 67°17' E 014°22'0 0.0
2017-Mar-22 19:33N 67°17' E 014°22'0 0.0
2017-Mar-22 18:34N 67°17' E 014°22'3 3.2
2017-Mar-22 17:34N 67°19' E 014°15'9 9.4
2017-Mar-22 16:33N 67°19' E 013°51'9 8.5
2017-Mar-22 15:34N 67°24' E 014°09'9 9.1
2017-Mar-22 14:34N 67°17' E 014°22'0 0.0
2017-Mar-22 13:33N 67°17' E 014°22'0 0.0
2017-Mar-22 12:33N 67°17' E 014°22'0 0.0
2017-Mar-22 11:33N 67°17' E 014°22'0 0.0
2017-Mar-22 10:33N 67°17' E 014°22'0 0.0
2017-Mar-22 09:33N 67°17' E 014°22'0 0.0
2017-Mar-22 08:34N 67°17' E 014°22'0 0.0
2017-Mar-22 07:34N 67°17' E 014°22'0 0.0
2017-Mar-22 06:34N 67°17' E 014°22'1212.4
2017-Mar-22 05:33N 67°08' E 014°02'1212.4
2017-Mar-22 04:33N 67°17' E 014°22'0 0.0
2017-Mar-22 03:33N 67°17' E 014°22'0 0.0
2017-Mar-22 02:33N 67°17' E 014°22'0 0.0
2017-Mar-22 01:33N 67°17' E 014°22'0 0.0
2017-Mar-22 00:33N 67°17' E 014°22'0 0.0
2017-Mar-21 23:33N 67°17' E 014°22'0 0.0
2017-Mar-21 22:33N 67°17' E 014°22'0 0.0
2017-Mar-21 21:33N 67°17' E 014°22'0 0.0
2017-Mar-21 20:33N 67°17' E 014°22'0 0.0
2017-Mar-21 19:33N 67°17' E 014°22'0 0.0
2017-Mar-21 18:32N 67°17' E 014°22'0 0.0
2017-Mar-21 17:32N 67°17' E 014°22'1111.7
2017-Mar-21 16:33N 67°19' E 013°53'8 7.6
2017-Mar-21 15:34N 67°25' E 014°07'10 9.5
2017-Mar-21 14:34N 67°17' E 014°22'0 0.0
2017-Mar-21 13:34N 67°17' E 014°22'0 0.0
2017-Mar-21 12:34N 67°17' E 014°22'0 0.0
2017-Mar-21 11:34N 67°17' E 014°22'0 0.0
2017-Mar-21 10:34N 67°17' E 014°22'0 0.0
2017-Mar-21 09:34N 67°17' E 014°22'0 0.0
2017-Mar-21 08:34N 67°17' E 014°22'1413.3
2017-Mar-21 07:32N 67°21' E 013°48'1110.8
2017-Mar-21 06:34N 67°23' E 014°15'1616.0
2017-Mar-21 05:33N 67°08' E 014°02'1211.9
2017-Mar-21 04:33N 67°17' E 014°22'0 0.0
2017-Mar-21 03:32N 67°17' E 014°22'0 0.0
2017-Mar-21 02:32N 67°17' E 014°22'0 0.0
2017-Mar-21 01:32N 67°17' E 014°22'0 0.0
2017-Mar-21 00:32N 67°17' E 014°22'0 0.0
2017-Mar-20 23:32N 67°17' E 014°22'0 0.0
2017-Mar-20 22:32N 67°17' E 014°22'0 0.0
2017-Mar-20 21:32N 67°17' E 014°22'0 0.0
2017-Mar-20 20:32N 67°17' E 014°22'0 0.0
2017-Mar-20 19:32N 67°17' E 014°22'0 0.0
2017-Mar-20 18:32N 67°17' E 014°22'0 0.0
2017-Mar-20 17:32N 67°17' E 014°22'1313.8
2017-Mar-20 16:33N 67°19' E 013°48'9 9.0
2017-Mar-20 15:33N 67°25' E 014°06'1010.1
2017-Mar-20 14:33N 67°17' E 014°22'0 0.0
2017-Mar-20 13:33N 67°17' E 014°22'0 0.0
2017-Mar-20 12:33N 67°17' E 014°22'0 0.0
2017-Mar-20 11:33N 67°17' E 014°22'0 0.0
2017-Mar-20 10:33N 67°17' E 014°22'0 0.0
2017-Mar-20 09:33N 67°17' E 014°22'3 2.6
2017-Mar-20 08:34N 67°19' E 014°20'1312.4
2017-Mar-20 07:32N 67°20' E 013°46'1111.8
2017-Mar-20 06:33N 67°23' E 014°15'3 2.7
2017-Mar-20 05:32N 67°25' E 014°08'2 0.2
2017-Mar-19 20:33N 67°25' E 014°03'1111.0
2017-Mar-19 19:33N 67°17' E 014°22'1313.5
2017-Mar-19 18:34N 67°07' E 013°58'2416.3
2017-Mar-19 17:04N 66°48' E 013°20'714.3
2017-Mar-19 16:33N 66°41' E 013°16'1413.6
2017-Mar-19 15:33N 66°29' E 012°58'1717.4
2017-Mar-19 14:33N 66°12' E 013°00'19 0.9
2017-Mar-18 18:31N 66°31' E 012°59'2713.8
2017-Mar-18 16:34N 66°55' E 013°30'1817.8
2017-Mar-18 15:33N 67°07' E 014°03'1212.3
2017-Mar-18 14:33N 67°17' E 014°22'0 0.0
2017-Mar-18 13:33N 67°17' E 014°22'0 0.0
2017-Mar-18 12:33N 67°17' E 014°22'0 0.0
2017-Mar-18 11:33N 67°17' E 014°22'0 0.0
2017-Mar-18 10:34N 67°17' E 014°22'4 1.9
2017-Mar-18 08:34N 67°19' E 014°15'1313.0
2017-Mar-18 07:33N 67°08' E 013°58'1111.3
2017-Mar-18 06:34N 67°16' E 014°18'2 1.8
2017-Mar-18 05:32N 67°17' E 014°22'0 0.0
2017-Mar-18 04:32N 67°17' E 014°22'0 0.0
2017-Mar-18 03:32N 67°17' E 014°22'0 0.0
2017-Mar-18 02:32N 67°17' E 014°22'0 0.0
2017-Mar-18 01:32N 67°17' E 014°22'0 0.0
2017-Mar-18 00:32N 67°17' E 014°22'  
Track history (hours):
 
Tides and Currents Weather Stations Pressure Air Temp Water Temp Dewpoint Dewpoint Depression Visibility Wind Speed Wind Dir Waves Ship Positions

Fjordprinsessen

Last reported at 2017-Mar-28 00:32 UTC. Time now 2017-Mar-28 00:39 UTC.
Position N 67°17' E 014°22'.

Length 30 m.

Type: High speed craft. MMSI: 259604000.

Date/timePositionNaut miles runAvg speedWind from/ knotsBaromVisibWave heightAir tempDewpointWater temp
2017-Mar-28 00:32N 67°17' E 014°22'0 0.0
2017-Mar-27 23:32N 67°17' E 014°22'0 0.0
2017-Mar-27 22:32N 67°17' E 014°22'0 0.0
2017-Mar-27 21:32N 67°17' E 014°22'0 0.0
2017-Mar-27 20:32N 67°17' E 014°22'0 0.0
2017-Mar-27 19:32N 67°17' E 014°22'0 0.0
2017-Mar-27 18:32N 67°17' E 014°22'0 0.0
2017-Mar-27 17:32N 67°17' E 014°22'0 0.0
2017-Mar-27 16:32N 67°17' E 014°22'0 0.0
2017-Mar-27 15:32N 67°17' E 014°22'7 7.1
2017-Mar-27 14:32N 67°23' E 014°14'7 7.1
2017-Mar-27 13:33N 67°17' E 014°22'0 0.0
2017-Mar-27 12:33N 67°17' E 014°22'0 0.0
2017-Mar-27 11:33N 67°17' E 014°22'0 0.0
2017-Mar-27 10:34N 67°17' E 014°22'1313.0
2017-Mar-27 09:34N 67°08' E 013°58'3215.4
2017-Mar-27 07:30N 66°41' E 013°16'1212.7
2017-Mar-27 06:33N 66°31' E 013°00'1916.1
2017-Mar-27 05:24N 66°12' E 013°00'0 0.0
2017-Mar-26 18:26N 66°12' E 013°00'9 0.4
2017-Mar-25 19:32N 66°21' E 012°53'1914.7
2017-Mar-25 18:17N 66°39' E 013°02'2010.8
2017-Mar-25 16:26N 66°56' E 013°27'1820.2
2017-Mar-25 15:34N 67°07' E 014°03'1212.3
2017-Mar-25 14:33N 67°17' E 014°22'0 0.0
2017-Mar-25 13:33N 67°17' E 014°22'0 0.0
2017-Mar-25 12:33N 67°17' E 014°22'0 0.0
2017-Mar-25 11:33N 67°17' E 014°22'10 9.5
2017-Mar-25 10:33N 67°24' E 014°06'9 8.5
2017-Mar-25 09:32N 67°19' E 013°47'9 9.7
2017-Mar-25 08:34N 67°17' E 014°11'1010.2
2017-Mar-25 07:34N 67°08' E 013°59'1111.2
2017-Mar-25 06:33N 67°16' E 014°17'2 2.2
2017-Mar-25 05:32N 67°17' E 014°22'0 0.0
2017-Mar-25 04:32N 67°17' E 014°22'0 0.0
2017-Mar-25 03:32N 67°17' E 014°22'0 0.0
2017-Mar-25 02:32N 67°17' E 014°22'0 0.0
2017-Mar-25 01:32N 67°17' E 014°22'0 0.0
2017-Mar-25 00:32N 67°17' E 014°22'0 0.0
2017-Mar-24 23:32N 67°17' E 014°22'0 0.0
2017-Mar-24 22:32N 67°17' E 014°22'0 0.0
2017-Mar-24 21:32N 67°17' E 014°22'0 0.0
2017-Mar-24 20:32N 67°17' E 014°22'0 0.0
2017-Mar-24 19:32N 67°17' E 014°22'0 0.0
2017-Mar-24 18:32N 67°17' E 014°22'0 0.0
2017-Mar-24 17:32N 67°17' E 014°22'5 4.7
2017-Mar-24 16:34N 67°21' E 014°15'4 4.0
2017-Mar-24 15:34N 67°24' E 014°10'9 8.5
2017-Mar-24 14:33N 67°17' E 014°22'1513.4
2017-Mar-24 13:26N 67°18' E 013°43'1315.0
2017-Mar-24 12:34N 67°23' E 014°15'7 7.0
2017-Mar-24 11:33N 67°17' E 014°24'1 0.6
2017-Mar-24 10:33N 67°17' E 014°22'0 0.0
2017-Mar-24 09:33N 67°17' E 014°22'0 0.0
2017-Mar-24 08:33N 67°17' E 014°22'0 0.0
2017-Mar-24 07:33N 67°17' E 014°22'0 0.0
2017-Mar-24 06:33N 67°17' E 014°22'1212.5
2017-Mar-24 05:33N 67°07' E 014°02'1212.5
2017-Mar-24 04:33N 67°17' E 014°22'0 0.0
2017-Mar-24 03:32N 67°17' E 014°22'0 0.0
2017-Mar-24 02:32N 67°17' E 014°22'0 0.0
2017-Mar-24 01:32N 67°17' E 014°22'0 0.0
2017-Mar-24 00:32N 67°17' E 014°22'0 0.0
2017-Mar-23 23:32N 67°17' E 014°22'0 0.0
2017-Mar-23 22:32N 67°17' E 014°22'0 0.0
2017-Mar-23 21:32N 67°17' E 014°22'8 8.3
2017-Mar-23 20:34N 67°14' E 014°04'6 6.2
2017-Mar-23 19:33N 67°08' E 014°02'1212.4
2017-Mar-23 18:33N 67°17' E 014°22'0 0.0
2017-Mar-23 17:33N 67°17' E 014°22'6 5.9
2017-Mar-23 16:34N 67°22' E 014°13'6 5.5
2017-Mar-23 15:32N 67°25' E 014°01'1111.5
2017-Mar-23 14:34N 67°17' E 014°22'1414.1
2017-Mar-23 13:33N 67°19' E 013°45'1212.0
2017-Mar-23 12:31N 67°23' E 014°15'7 7.3
2017-Mar-23 11:33N 67°17' E 014°24'1110.7
2017-Mar-23 10:34N 67°13' E 013°59'2 2.1
2017-Mar-23 09:33N 67°11' E 014°02'10 9.2
2017-Mar-23 08:31N 67°17' E 014°22'0 0.0
2017-Mar-23 07:31N 67°17' E 014°22'0 0.0
2017-Mar-23 06:31N 67°17' E 014°22'1213.0
2017-Mar-23 05:33N 67°07' E 014°02'1212.5
2017-Mar-23 04:33N 67°17' E 014°22'0 0.0
2017-Mar-23 03:33N 67°17' E 014°22'0 0.0
2017-Mar-23 02:33N 67°17' E 014°22'0 0.0
2017-Mar-23 01:33N 67°17' E 014°22'0 0.0
2017-Mar-23 00:33N 67°17' E 014°22'0 0.0
2017-Mar-22 23:33N 67°17' E 014°22'0 0.0
2017-Mar-22 22:33N 67°17' E 014°22'0 0.0
2017-Mar-22 21:33N 67°17' E 014°22'0 0.0
2017-Mar-22 20:33N 67°17' E 014°22'0 0.0
2017-Mar-22 19:33N 67°17' E 014°22'0 0.0
2017-Mar-22 18:34N 67°17' E 014°22'3 3.2
2017-Mar-22 17:34N 67°19' E 014°15'9 9.4
2017-Mar-22 16:33N 67°19' E 013°51'9 8.5
2017-Mar-22 15:34N 67°24' E 014°09'9 9.1
2017-Mar-22 14:34N 67°17' E 014°22'0 0.0
2017-Mar-22 13:33N 67°17' E 014°22'0 0.0
2017-Mar-22 12:33N 67°17' E 014°22'0 0.0
2017-Mar-22 11:33N 67°17' E 014°22'0 0.0
2017-Mar-22 10:33N 67°17' E 014°22'0 0.0
2017-Mar-22 09:33N 67°17' E 014°22'0 0.0
2017-Mar-22 08:34N 67°17' E 014°22'0 0.0
2017-Mar-22 07:34N 67°17' E 014°22'0 0.0
2017-Mar-22 06:34N 67°17' E 014°22'1212.4
2017-Mar-22 05:33N 67°08' E 014°02'1212.4
2017-Mar-22 04:33N 67°17' E 014°22'0 0.0
2017-Mar-22 03:33N 67°17' E 014°22'0 0.0
2017-Mar-22 02:33N 67°17' E 014°22'0 0.0
2017-Mar-22 01:33N 67°17' E 014°22'0 0.0
2017-Mar-22 00:33N 67°17' E 014°22'0 0.0
2017-Mar-21 23:33N 67°17' E 014°22'0 0.0
2017-Mar-21 22:33N 67°17' E 014°22'0 0.0
2017-Mar-21 21:33N 67°17' E 014°22'0 0.0
2017-Mar-21 20:33N 67°17' E 014°22'0 0.0
2017-Mar-21 19:33N 67°17' E 014°22'0 0.0
2017-Mar-21 18:32N 67°17' E 014°22'0 0.0
2017-Mar-21 17:32N 67°17' E 014°22'1111.7
2017-Mar-21 16:33N 67°19' E 013°53'8 7.6
2017-Mar-21 15:34N 67°25' E 014°07'10 9.5
2017-Mar-21 14:34N 67°17' E 014°22'0 0.0
2017-Mar-21 13:34N 67°17' E 014°22'0 0.0
2017-Mar-21 12:34N 67°17' E 014°22'0 0.0
2017-Mar-21 11:34N 67°17' E 014°22'0 0.0
2017-Mar-21 10:34N 67°17' E 014°22'0 0.0
2017-Mar-21 09:34N 67°17' E 014°22'0 0.0
2017-Mar-21 08:34N 67°17' E 014°22'1413.3
2017-Mar-21 07:32N 67°21' E 013°48'1110.8
2017-Mar-21 06:34N 67°23' E 014°15'1616.0
2017-Mar-21 05:33N 67°08' E 014°02'1211.9
2017-Mar-21 04:33N 67°17' E 014°22'0 0.0
2017-Mar-21 03:32N 67°17' E 014°22'0 0.0
2017-Mar-21 02:32N 67°17' E 014°22'0 0.0
2017-Mar-21 01:32N 67°17' E 014°22'0 0.0
2017-Mar-21 00:32N 67°17' E 014°22'0 0.0
2017-Mar-20 23:32N 67°17' E 014°22'0 0.0
2017-Mar-20 22:32N 67°17' E 014°22'0 0.0
2017-Mar-20 21:32N 67°17' E 014°22'0 0.0
2017-Mar-20 20:32N 67°17' E 014°22'0 0.0
2017-Mar-20 19:32N 67°17' E 014°22'0 0.0
2017-Mar-20 18:32N 67°17' E 014°22'0 0.0
2017-Mar-20 17:32N 67°17' E 014°22'1313.8
2017-Mar-20 16:33N 67°19' E 013°48'9 9.0
2017-Mar-20 15:33N 67°25' E 014°06'1010.1
2017-Mar-20 14:33N 67°17' E 014°22'0 0.0
2017-Mar-20 13:33N 67°17' E 014°22'0 0.0
2017-Mar-20 12:33N 67°17' E 014°22'0 0.0
2017-Mar-20 11:33N 67°17' E 014°22'0 0.0
2017-Mar-20 10:33N 67°17' E 014°22'0 0.0
2017-Mar-20 09:33N 67°17' E 014°22'3 2.6
2017-Mar-20 08:34N 67°19' E 014°20'1312.4
2017-Mar-20 07:32N 67°20' E 013°46'1111.8
2017-Mar-20 06:33N 67°23' E 014°15'3 2.7
2017-Mar-20 05:32N 67°25' E 014°08'2 0.2
2017-Mar-19 20:33N 67°25' E 014°03'1111.0
2017-Mar-19 19:33N 67°17' E 014°22'1313.5
2017-Mar-19 18:34N 67°07' E 013°58'2416.3
2017-Mar-19 17:04N 66°48' E 013°20'714.3
2017-Mar-19 16:33N 66°41' E 013°16'1413.6
2017-Mar-19 15:33N 66°29' E 012°58'1717.4
2017-Mar-19 14:33N 66°12' E 013°00'19 0.9
2017-Mar-18 18:31N 66°31' E 012°59'2713.8
2017-Mar-18 16:34N 66°55' E 013°30'1817.8
2017-Mar-18 15:33N 67°07' E 014°03'1212.3
2017-Mar-18 14:33N 67°17' E 014°22'0 0.0
2017-Mar-18 13:33N 67°17' E 014°22'0 0.0
2017-Mar-18 12:33N 67°17' E 014°22'0 0.0
2017-Mar-18 11:33N 67°17' E 014°22'0 0.0
2017-Mar-18 10:34N 67°17' E 014°22'4 1.9
2017-Mar-18 08:34N 67°19' E 014°15'1313.0
2017-Mar-18 07:33N 67°08' E 013°58'1111.3
2017-Mar-18 06:34N 67°16' E 014°18'2 1.8
2017-Mar-18 05:32N 67°17' E 014°22'0 0.0
2017-Mar-18 04:32N 67°17' E 014°22'0 0.0
2017-Mar-18 03:32N 67°17' E 014°22'0 0.0
2017-Mar-18 02:32N 67°17' E 014°22'0 0.0
2017-Mar-18 01:32N 67°17' E 014°22'0 0.0
2017-Mar-18 00:32N 67°17' E 014°22'  

Dump ship's entire track history